sensor_id;sensor_type;location;lat;lon;timestamp;P1;durP1;ratioP1;P2;durP2;ratioP2
30515;SDS011;17297;54.022;10.760;2023-05-07T00:00:08;14.65;;;9.95;;
30515;SDS011;17297;54.022;10.760;2023-05-07T00:02:34;11.38;;;9.27;;
30515;SDS011;17297;54.022;10.760;2023-05-07T00:05:00;15.07;;;10.23;;
30515;SDS011;17297;54.022;10.760;2023-05-07T00:07:27;14.40;;;9.95;;
30515;SDS011;17297;54.022;10.760;2023-05-07T00:09:52;15.40;;;9.25;;
30515;SDS011;17297;54.022;10.760;2023-05-07T00:12:18;14.80;;;10.35;;
30515;SDS011;17297;54.022;10.760;2023-05-07T00:14:43;13.18;;;10.23;;
30515;SDS011;17297;54.022;10.760;2023-05-07T00:17:09;15.00;;;10.32;;
30515;SDS011;17297;54.022;10.760;2023-05-07T00:19:34;13.48;;;9.77;;
30515;SDS011;17297;54.022;10.760;2023-05-07T00:21:59;16.92;;;9.95;;
30515;SDS011;17297;54.022;10.760;2023-05-07T00:24:25;15.00;;;11.52;;
30515;SDS011;17297;54.022;10.760;2023-05-07T00:26:50;14.43;;;10.35;;
30515;SDS011;17297;54.022;10.760;2023-05-07T00:29:16;12.10;;;9.70;;
30515;SDS011;17297;54.022;10.760;2023-05-07T00:31:41;16.58;;;10.93;;
30515;SDS011;17297;54.022;10.760;2023-05-07T00:34:06;16.17;;;9.85;;
30515;SDS011;17297;54.022;10.760;2023-05-07T00:36:32;15.55;;;10.18;;
30515;SDS011;17297;54.022;10.760;2023-05-07T00:38:59;15.57;;;10.00;;
30515;SDS011;17297;54.022;10.760;2023-05-07T00:41:27;14.18;;;9.75;;
30515;SDS011;17297;54.022;10.760;2023-05-07T00:43:52;14.10;;;9.95;;
30515;SDS011;17297;54.022;10.760;2023-05-07T00:46:18;14.93;;;10.80;;
30515;SDS011;17297;54.022;10.760;2023-05-07T00:48:45;14.57;;;10.05;;
30515;SDS011;17297;54.022;10.760;2023-05-07T00:51:11;13.80;;;9.98;;
30515;SDS011;17297;54.022;10.760;2023-05-07T00:53:37;15.85;;;10.20;;
30515;SDS011;17297;54.022;10.760;2023-05-07T00:56:03;13.38;;;9.32;;
30515;SDS011;17297;54.022;10.760;2023-05-07T00:58:29;13.10;;;10.48;;
30515;SDS011;17297;54.022;10.760;2023-05-07T01:00:55;14.27;;;10.57;;
30515;SDS011;17297;54.022;10.760;2023-05-07T01:03:20;12.90;;;9.82;;
30515;SDS011;17297;54.022;10.760;2023-05-07T01:05:46;13.57;;;10.85;;
30515;SDS011;17297;54.022;10.760;2023-05-07T01:08:13;13.25;;;10.63;;
30515;SDS011;17297;54.022;10.760;2023-05-07T01:10:40;13.48;;;9.27;;
30515;SDS011;17297;54.022;10.760;2023-05-07T01:13:08;14.07;;;9.15;;
30515;SDS011;17297;54.022;10.760;2023-05-07T01:15:35;14.70;;;9.25;;
30515;SDS011;17297;54.022;10.760;2023-05-07T01:18:01;13.25;;;8.60;;
30515;SDS011;17297;54.022;10.760;2023-05-07T01:20:32;12.20;;;9.23;;
30515;SDS011;17297;54.022;10.760;2023-05-07T01:22:58;13.90;;;10.45;;
30515;SDS011;17297;54.022;10.760;2023-05-07T01:25:25;15.00;;;9.75;;
30515;SDS011;17297;54.022;10.760;2023-05-07T01:27:54;10.30;;;9.00;;
30515;SDS011;17297;54.022;10.760;2023-05-07T01:30:24;11.35;;;8.82;;
30515;SDS011;17297;54.022;10.760;2023-05-07T01:32:56;13.20;;;10.45;;
30515;SDS011;17297;54.022;10.760;2023-05-07T01:35:37;10.15;;;8.73;;
30515;SDS011;17297;54.022;10.760;2023-05-07T01:38:05;14.18;;;9.80;;
30515;SDS011;17297;54.022;10.760;2023-05-07T01:40:31;12.57;;;10.30;;
30515;SDS011;17297;54.022;10.760;2023-05-07T01:42:59;10.20;;;9.20;;
30515;SDS011;17297;54.022;10.760;2023-05-07T01:45:24;13.40;;;9.45;;
30515;SDS011;17297;54.022;10.760;2023-05-07T01:47:50;10.50;;;8.75;;
30515;SDS011;17297;54.022;10.760;2023-05-07T01:50:18;12.82;;;10.73;;
30515;SDS011;17297;54.022;10.760;2023-05-07T01:52:45;12.80;;;9.52;;
30515;SDS011;17297;54.022;10.760;2023-05-07T01:55:11;13.18;;;10.52;;
30515;SDS011;17297;54.022;10.760;2023-05-07T01:57:37;12.63;;;9.45;;
30515;SDS011;17297;54.022;10.760;2023-05-07T02:00:04;10.63;;;8.18;;
30515;SDS011;17297;54.022;10.760;2023-05-07T02:02:40;11.07;;;8.82;;
30515;SDS011;17297;54.022;10.760;2023-05-07T02:05:09;9.15;;;7.80;;
30515;SDS011;17297;54.022;10.760;2023-05-07T02:07:36;12.40;;;9.32;;
30515;SDS011;17297;54.022;10.760;2023-05-07T02:10:02;10.32;;;8.48;;
30515;SDS011;17297;54.022;10.760;2023-05-07T02:12:28;10.48;;;8.75;;
30515;SDS011;17297;54.022;10.760;2023-05-07T02:14:53;11.45;;;9.27;;
30515;SDS011;17297;54.022;10.760;2023-05-07T02:17:19;12.48;;;9.70;;
30515;SDS011;17297;54.022;10.760;2023-05-07T02:19:44;12.30;;;8.20;;
30515;SDS011;17297;54.022;10.760;2023-05-07T02:22:10;12.02;;;9.30;;
30515;SDS011;17297;54.022;10.760;2023-05-07T02:24:35;13.57;;;9.82;;
30515;SDS011;17297;54.022;10.760;2023-05-07T02:27:01;13.25;;;9.80;;
30515;SDS011;17297;54.022;10.760;2023-05-07T02:29:27;12.73;;;8.82;;
30515;SDS011;17297;54.022;10.760;2023-05-07T02:31:53;12.52;;;10.25;;
30515;SDS011;17297;54.022;10.760;2023-05-07T02:34:18;13.60;;;10.15;;
30515;SDS011;17297;54.022;10.760;2023-05-07T02:36:44;12.35;;;9.25;;
30515;SDS011;17297;54.022;10.760;2023-05-07T02:39:12;11.70;;;9.45;;
30515;SDS011;17297;54.022;10.760;2023-05-07T02:41:38;9.70;;;8.32;;
30515;SDS011;17297;54.022;10.760;2023-05-07T02:44:03;11.52;;;8.75;;
30515;SDS011;17297;54.022;10.760;2023-05-07T02:46:29;10.00;;;7.82;;
30515;SDS011;17297;54.022;10.760;2023-05-07T02:49:00;9.93;;;8.93;;
30515;SDS011;17297;54.022;10.760;2023-05-07T02:51:25;10.63;;;8.63;;
30515;SDS011;17297;54.022;10.760;2023-05-07T02:53:54;11.88;;;8.73;;
30515;SDS011;17297;54.022;10.760;2023-05-07T02:56:20;10.50;;;8.93;;
30515;SDS011;17297;54.022;10.760;2023-05-07T02:58:46;10.82;;;7.75;;
30515;SDS011;17297;54.022;10.760;2023-05-07T03:01:12;10.48;;;8.65;;
30515;SDS011;17297;54.022;10.760;2023-05-07T03:03:51;10.50;;;8.43;;
30515;SDS011;17297;54.022;10.760;2023-05-07T03:06:16;10.45;;;8.65;;
30515;SDS011;17297;54.022;10.760;2023-05-07T03:08:42;9.70;;;7.60;;
30515;SDS011;17297;54.022;10.760;2023-05-07T03:11:07;11.35;;;8.48;;
30515;SDS011;17297;54.022;10.760;2023-05-07T03:13:33;10.68;;;8.55;;
30515;SDS011;17297;54.022;10.760;2023-05-07T03:15:58;12.45;;;8.85;;
30515;SDS011;17297;54.022;10.760;2023-05-07T03:18:24;10.35;;;8.73;;
30515;SDS011;17297;54.022;10.760;2023-05-07T03:20:49;11.00;;;8.13;;
30515;SDS011;17297;54.022;10.760;2023-05-07T03:23:16;11.10;;;7.90;;
30515;SDS011;17297;54.022;10.760;2023-05-07T03:25:41;12.95;;;9.20;;
30515;SDS011;17297;54.022;10.760;2023-05-07T03:28:07;11.90;;;8.75;;
30515;SDS011;17297;54.022;10.760;2023-05-07T03:30:39;9.57;;;8.57;;
30515;SDS011;17297;54.022;10.760;2023-05-07T03:33:04;14.57;;;9.68;;
30515;SDS011;17297;54.022;10.760;2023-05-07T03:35:30;16.25;;;11.15;;
30515;SDS011;17297;54.022;10.760;2023-05-07T03:37:55;10.77;;;9.20;;
30515;SDS011;17297;54.022;10.760;2023-05-07T03:40:21;13.20;;;9.27;;
30515;SDS011;17297;54.022;10.760;2023-05-07T03:42:50;9.82;;;8.73;;
30515;SDS011;17297;54.022;10.760;2023-05-07T03:45:18;10.05;;;8.77;;
30515;SDS011;17297;54.022;10.760;2023-05-07T03:47:48;10.95;;;8.70;;
30515;SDS011;17297;54.022;10.760;2023-05-07T03:50:17;12.80;;;9.95;;
30515;SDS011;17297;54.022;10.760;2023-05-07T03:52:42;10.75;;;9.65;;
30515;SDS011;17297;54.022;10.760;2023-05-07T03:55:09;10.63;;;8.70;;
30515;SDS011;17297;54.022;10.760;2023-05-07T03:57:37;11.77;;;8.80;;
30515;SDS011;17297;54.022;10.760;2023-05-07T04:00:03;13.23;;;9.07;;
30515;SDS011;17297;54.022;10.760;2023-05-07T04:02:34;12.40;;;8.95;;
30515;SDS011;17297;54.022;10.760;2023-05-07T04:05:00;11.35;;;7.95;;
30515;SDS011;17297;54.022;10.760;2023-05-07T04:07:26;11.13;;;8.75;;
30515;SDS011;17297;54.022;10.760;2023-05-07T04:09:51;11.82;;;8.50;;
30515;SDS011;17297;54.022;10.760;2023-05-07T04:12:17;9.88;;;8.32;;
30515;SDS011;17297;54.022;10.760;2023-05-07T04:14:42;10.90;;;9.65;;
30515;SDS011;17297;54.022;10.760;2023-05-07T04:17:07;12.02;;;8.10;;
30515;SDS011;17297;54.022;10.760;2023-05-07T04:19:37;10.57;;;8.32;;
30515;SDS011;17297;54.022;10.760;2023-05-07T04:22:02;11.00;;;8.13;;
30515;SDS011;17297;54.022;10.760;2023-05-07T04:24:31;9.50;;;7.65;;
30515;SDS011;17297;54.022;10.760;2023-05-07T04:26:58;8.68;;;7.78;;
30515;SDS011;17297;54.022;10.760;2023-05-07T04:29:24;11.20;;;8.30;;
30515;SDS011;17297;54.022;10.760;2023-05-07T04:31:49;11.65;;;8.40;;
30515;SDS011;17297;54.022;10.760;2023-05-07T04:34:15;11.82;;;8.00;;
30515;SDS011;17297;54.022;10.760;2023-05-07T04:36:41;10.63;;;7.47;;
30515;SDS011;17297;54.022;10.760;2023-05-07T04:39:10;13.05;;;7.70;;
30515;SDS011;17297;54.022;10.760;2023-05-07T04:41:36;13.23;;;7.80;;
30515;SDS011;17297;54.022;10.760;2023-05-07T04:44:02;12.50;;;8.38;;
30515;SDS011;17297;54.022;10.760;2023-05-07T04:46:31;9.02;;;8.13;;
30515;SDS011;17297;54.022;10.760;2023-05-07T04:48:57;11.98;;;8.25;;
30515;SDS011;17297;54.022;10.760;2023-05-07T04:51:22;11.00;;;7.25;;
30515;SDS011;17297;54.022;10.760;2023-05-07T04:53:48;9.75;;;8.32;;
30515;SDS011;17297;54.022;10.760;2023-05-07T04:56:14;11.50;;;8.80;;
30515;SDS011;17297;54.022;10.760;2023-05-07T04:58:42;11.93;;;7.53;;
30515;SDS011;17297;54.022;10.760;2023-05-07T05:01:08;10.50;;;8.55;;
30515;SDS011;17297;54.022;10.760;2023-05-07T05:03:33;10.30;;;7.88;;
30515;SDS011;17297;54.022;10.760;2023-05-07T05:05:59;10.35;;;8.18;;
30515;SDS011;17297;54.022;10.760;2023-05-07T05:08:26;10.90;;;8.25;;
30515;SDS011;17297;54.022;10.760;2023-05-07T05:10:52;11.23;;;8.65;;
30515;SDS011;17297;54.022;10.760;2023-05-07T05:13:17;8.45;;;7.50;;
30515;SDS011;17297;54.022;10.760;2023-05-07T05:15:43;7.93;;;7.13;;
30515;SDS011;17297;54.022;10.760;2023-05-07T05:18:09;14.25;;;10.00;;
30515;SDS011;17297;54.022;10.760;2023-05-07T05:20:34;10.52;;;8.32;;
30515;SDS011;17297;54.022;10.760;2023-05-07T05:22:59;13.15;;;8.70;;
30515;SDS011;17297;54.022;10.760;2023-05-07T05:25:25;10.10;;;7.30;;
30515;SDS011;17297;54.022;10.760;2023-05-07T05:27:51;8.05;;;7.25;;
30515;SDS011;17297;54.022;10.760;2023-05-07T05:30:17;11.85;;;7.55;;
30515;SDS011;17297;54.022;10.760;2023-05-07T05:32:45;12.40;;;7.78;;
30515;SDS011;17297;54.022;10.760;2023-05-07T05:35:10;10.32;;;7.65;;
30515;SDS011;17297;54.022;10.760;2023-05-07T05:37:35;9.25;;;7.20;;
30515;SDS011;17297;54.022;10.760;2023-05-07T05:40:03;10.55;;;7.30;;
30515;SDS011;17297;54.022;10.760;2023-05-07T05:42:29;10.45;;;7.63;;
30515;SDS011;17297;54.022;10.760;2023-05-07T05:44:54;8.45;;;6.93;;
30515;SDS011;17297;54.022;10.760;2023-05-07T05:47:21;10.27;;;7.60;;
30515;SDS011;17297;54.022;10.760;2023-05-07T05:49:47;9.88;;;7.03;;
30515;SDS011;17297;54.022;10.760;2023-05-07T05:52:14;9.77;;;7.15;;
30515;SDS011;17297;54.022;10.760;2023-05-07T05:54:40;14.93;;;8.60;;
30515;SDS011;17297;54.022;10.760;2023-05-07T05:57:05;8.40;;;7.45;;
30515;SDS011;17297;54.022;10.760;2023-05-07T05:59:31;9.43;;;7.18;;
30515;SDS011;17297;54.022;10.760;2023-05-07T06:01:56;9.00;;;7.05;;
30515;SDS011;17297;54.022;10.760;2023-05-07T06:04:22;8.90;;;7.03;;
30515;SDS011;17297;54.022;10.760;2023-05-07T06:06:48;8.73;;;6.88;;
30515;SDS011;17297;54.022;10.760;2023-05-07T06:09:14;8.60;;;6.75;;
30515;SDS011;17297;54.022;10.760;2023-05-07T06:11:42;7.03;;;6.20;;
30515;SDS011;17297;54.022;10.760;2023-05-07T06:14:08;8.73;;;5.88;;
30515;SDS011;17297;54.022;10.760;2023-05-07T06:16:34;8.15;;;6.32;;
30515;SDS011;17297;54.022;10.760;2023-05-07T06:18:59;11.18;;;6.78;;
30515;SDS011;17297;54.022;10.760;2023-05-07T06:21:25;8.45;;;7.03;;
30515;SDS011;17297;54.022;10.760;2023-05-07T06:23:50;7.35;;;5.53;;
30515;SDS011;17297;54.022;10.760;2023-05-07T06:26:17;8.40;;;7.25;;
30515;SDS011;17297;54.022;10.760;2023-05-07T06:28:45;7.55;;;5.63;;
30515;SDS011;17297;54.022;10.760;2023-05-07T06:31:16;6.28;;;5.65;;
30515;SDS011;17297;54.022;10.760;2023-05-07T06:33:49;8.35;;;6.22;;
30515;SDS011;17297;54.022;10.760;2023-05-07T06:36:15;5.65;;;5.15;;
30515;SDS011;17297;54.022;10.760;2023-05-07T06:38:40;7.70;;;5.28;;
30515;SDS011;17297;54.022;10.760;2023-05-07T06:41:06;10.38;;;5.78;;
30515;SDS011;17297;54.022;10.760;2023-05-07T06:43:32;8.68;;;5.35;;
30515;SDS011;17297;54.022;10.760;2023-05-07T06:46:17;7.40;;;6.32;;
30515;SDS011;17297;54.022;10.760;2023-05-07T06:48:43;6.68;;;5.18;;
30515;SDS011;17297;54.022;10.760;2023-05-07T06:51:08;6.72;;;5.47;;
30515;SDS011;17297;54.022;10.760;2023-05-07T06:53:34;9.75;;;5.97;;
30515;SDS011;17297;54.022;10.760;2023-05-07T06:56:01;7.18;;;5.78;;
30515;SDS011;17297;54.022;10.760;2023-05-07T06:58:26;7.55;;;5.90;;
30515;SDS011;17297;54.022;10.760;2023-05-07T07:00:52;7.35;;;5.88;;
30515;SDS011;17297;54.022;10.760;2023-05-07T07:03:18;8.07;;;5.97;;
30515;SDS011;17297;54.022;10.760;2023-05-07T07:05:44;7.72;;;6.28;;
30515;SDS011;17297;54.022;10.760;2023-05-07T07:08:09;9.80;;;7.30;;
30515;SDS011;17297;54.022;10.760;2023-05-07T07:10:35;11.25;;;7.78;;
30515;SDS011;17297;54.022;10.760;2023-05-07T07:13:02;8.93;;;6.97;;
30515;SDS011;17297;54.022;10.760;2023-05-07T07:15:27;10.80;;;7.90;;
30515;SDS011;17297;54.022;10.760;2023-05-07T07:17:54;9.75;;;7.18;;
30515;SDS011;17297;54.022;10.760;2023-05-07T07:20:21;11.18;;;7.32;;
30515;SDS011;17297;54.022;10.760;2023-05-07T07:22:47;10.23;;;6.55;;
30515;SDS011;17297;54.022;10.760;2023-05-07T07:25:14;7.50;;;6.03;;
30515;SDS011;17297;54.022;10.760;2023-05-07T07:27:40;8.38;;;6.10;;
30515;SDS011;17297;54.022;10.760;2023-05-07T07:30:06;7.78;;;6.50;;
30515;SDS011;17297;54.022;10.760;2023-05-07T07:32:35;8.52;;;6.20;;
30515;SDS011;17297;54.022;10.760;2023-05-07T07:35:00;9.18;;;6.15;;
30515;SDS011;17297;54.022;10.760;2023-05-07T07:37:26;7.00;;;6.13;;
30515;SDS011;17297;54.022;10.760;2023-05-07T07:39:52;6.45;;;5.70;;
30515;SDS011;17297;54.022;10.760;2023-05-07T07:42:18;7.47;;;6.70;;
30515;SDS011;17297;54.022;10.760;2023-05-07T07:44:44;6.97;;;5.78;;
30515;SDS011;17297;54.022;10.760;2023-05-07T07:47:11;6.60;;;5.65;;
30515;SDS011;17297;54.022;10.760;2023-05-07T07:49:37;7.50;;;6.10;;
30515;SDS011;17297;54.022;10.760;2023-05-07T07:52:05;6.78;;;5.78;;
30515;SDS011;17297;54.022;10.760;2023-05-07T07:54:32;8.10;;;7.30;;
30515;SDS011;17297;54.022;10.760;2023-05-07T07:56:58;7.55;;;6.13;;
30515;SDS011;17297;54.022;10.760;2023-05-07T07:59:24;6.63;;;5.13;;
30515;SDS011;17297;54.022;10.760;2023-05-07T08:01:49;6.78;;;5.70;;
30515;SDS011;17297;54.022;10.760;2023-05-07T08:04:17;6.88;;;6.18;;
30515;SDS011;17297;54.022;10.760;2023-05-07T08:06:43;5.68;;;4.80;;
30515;SDS011;17297;54.022;10.760;2023-05-07T08:09:09;7.60;;;5.20;;
30515;SDS011;17297;54.022;10.760;2023-05-07T08:11:36;5.80;;;5.30;;
30515;SDS011;17297;54.022;10.760;2023-05-07T08:14:02;6.85;;;5.63;;
30515;SDS011;17297;54.022;10.760;2023-05-07T08:16:28;6.97;;;5.55;;
30515;SDS011;17297;54.022;10.760;2023-05-07T08:18:53;8.50;;;5.50;;
30515;SDS011;17297;54.022;10.760;2023-05-07T08:21:19;6.45;;;5.82;;
30515;SDS011;17297;54.022;10.760;2023-05-07T08:23:45;7.25;;;5.90;;
30515;SDS011;17297;54.022;10.760;2023-05-07T08:26:10;6.18;;;4.80;;
30515;SDS011;17297;54.022;10.760;2023-05-07T08:28:36;5.60;;;5.03;;
30515;SDS011;17297;54.022;10.760;2023-05-07T08:31:02;5.65;;;5.05;;
30515;SDS011;17297;54.022;10.760;2023-05-07T08:33:31;7.25;;;4.78;;
30515;SDS011;17297;54.022;10.760;2023-05-07T08:35:57;6.47;;;4.90;;
30515;SDS011;17297;54.022;10.760;2023-05-07T08:38:22;5.97;;;5.03;;
30515;SDS011;17297;54.022;10.760;2023-05-07T08:40:48;4.95;;;4.47;;
30515;SDS011;17297;54.022;10.760;2023-05-07T08:43:17;5.82;;;5.20;;
30515;SDS011;17297;54.022;10.760;2023-05-07T08:45:45;6.03;;;4.55;;
30515;SDS011;17297;54.022;10.760;2023-05-07T08:48:15;5.00;;;4.50;;
30515;SDS011;17297;54.022;10.760;2023-05-07T08:50:44;7.38;;;4.95;;
30515;SDS011;17297;54.022;10.760;2023-05-07T08:53:10;4.82;;;4.25;;
30515;SDS011;17297;54.022;10.760;2023-05-07T08:55:36;4.70;;;4.30;;
30515;SDS011;17297;54.022;10.760;2023-05-07T08:58:01;4.30;;;3.90;;
30515;SDS011;17297;54.022;10.760;2023-05-07T09:00:28;4.10;;;3.70;;
30515;SDS011;17297;54.022;10.760;2023-05-07T09:02:55;4.70;;;4.30;;
30515;SDS011;17297;54.022;10.760;2023-05-07T09:05:21;4.60;;;4.20;;
30515;SDS011;17297;54.022;10.760;2023-05-07T09:07:47;4.30;;;3.88;;
30515;SDS011;17297;54.022;10.760;2023-05-07T09:10:13;5.72;;;4.22;;
30515;SDS011;17297;54.022;10.760;2023-05-07T09:12:41;5.32;;;4.85;;
30515;SDS011;17297;54.022;10.760;2023-05-07T09:15:08;5.78;;;4.75;;
30515;SDS011;17297;54.022;10.760;2023-05-07T09:17:34;4.22;;;3.88;;
30515;SDS011;17297;54.022;10.760;2023-05-07T09:20:03;4.13;;;3.72;;
30515;SDS011;17297;54.022;10.760;2023-05-07T09:22:31;4.25;;;3.95;;
30515;SDS011;17297;54.022;10.760;2023-05-07T09:25:01;4.55;;;4.03;;
30515;SDS011;17297;54.022;10.760;2023-05-07T09:27:28;4.68;;;4.20;;
30515;SDS011;17297;54.022;10.760;2023-05-07T09:29:57;4.50;;;3.72;;
30515;SDS011;17297;54.022;10.760;2023-05-07T09:32:24;4.13;;;3.38;;
30515;SDS011;17297;54.022;10.760;2023-05-07T09:34:50;5.28;;;3.70;;
30515;SDS011;17297;54.022;10.760;2023-05-07T09:37:18;3.95;;;3.65;;
30515;SDS011;17297;54.022;10.760;2023-05-07T09:39:45;4.70;;;3.88;;
30515;SDS011;17297;54.022;10.760;2023-05-07T09:42:14;4.03;;;3.30;;
30515;SDS011;17297;54.022;10.760;2023-05-07T09:44:41;3.60;;;3.30;;
30515;SDS011;17297;54.022;10.760;2023-05-07T09:47:11;3.63;;;3.15;;
30515;SDS011;17297;54.022;10.760;2023-05-07T09:49:44;3.50;;;3.20;;
30515;SDS011;17297;54.022;10.760;2023-05-07T09:52:14;3.67;;;3.35;;
30515;SDS011;17297;54.022;10.760;2023-05-07T09:54:45;4.15;;;3.20;;
30515;SDS011;17297;54.022;10.760;2023-05-07T09:57:14;3.53;;;3.22;;
30515;SDS011;17297;54.022;10.760;2023-05-07T09:59:43;3.58;;;3.28;;
30515;SDS011;17297;54.022;10.760;2023-05-07T10:02:12;3.63;;;2.75;;
30515;SDS011;17297;54.022;10.760;2023-05-07T10:04:46;3.30;;;2.92;;
30515;SDS011;17297;54.022;10.760;2023-05-07T10:07:13;3.65;;;2.60;;
30515;SDS011;17297;54.022;10.760;2023-05-07T10:09:39;4.25;;;2.53;;
30515;SDS011;17297;54.022;10.760;2023-05-07T10:12:11;2.65;;;2.45;;
30515;SDS011;17297;54.022;10.760;2023-05-07T10:14:37;3.33;;;2.53;;
30515;SDS011;17297;54.022;10.760;2023-05-07T10:17:04;2.63;;;2.42;;
30515;SDS011;17297;54.022;10.760;2023-05-07T10:19:31;3.00;;;2.40;;
30515;SDS011;17297;54.022;10.760;2023-05-07T10:21:59;2.80;;;2.20;;
30515;SDS011;17297;54.022;10.760;2023-05-07T10:24:32;3.47;;;2.38;;
30515;SDS011;17297;54.022;10.760;2023-05-07T10:27:11;2.33;;;2.13;;
30515;SDS011;17297;54.022;10.760;2023-05-07T10:32:37;5.88;;;2.42;;
30515;SDS011;17297;54.022;10.760;2023-05-07T10:35:16;3.95;;;2.10;;
30515;SDS011;17297;54.022;10.760;2023-05-07T10:37:54;2.95;;;2.65;;
30515;SDS011;17297;54.022;10.760;2023-05-07T10:40:21;2.90;;;2.20;;
30515;SDS011;17297;54.022;10.760;2023-05-07T10:42:57;2.30;;;2.10;;
30515;SDS011;17297;54.022;10.760;2023-05-07T10:45:31;2.75;;;2.08;;
30515;SDS011;17297;54.022;10.760;2023-05-07T10:48:12;3.15;;;2.13;;
30515;SDS011;17297;54.022;10.760;2023-05-07T10:55:47;2.40;;;2.20;;
30515;SDS011;17297;54.022;10.760;2023-05-07T11:00:50;3.63;;;2.22;;
30515;SDS011;17297;54.022;10.760;2023-05-07T11:03:24;3.75;;;2.25;;
30515;SDS011;17297;54.022;10.760;2023-05-07T11:06:11;3.58;;;2.60;;
30515;SDS011;17297;54.022;10.760;2023-05-07T11:11:16;2.80;;;2.47;;
30515;SDS011;17297;54.022;10.760;2023-05-07T11:13:47;2.30;;;2.00;;
30515;SDS011;17297;54.022;10.760;2023-05-07T11:16:27;2.25;;;2.05;;
30515;SDS011;17297;54.022;10.760;2023-05-07T11:25:09;2.75;;;2.30;;
30515;SDS011;17297;54.022;10.760;2023-05-07T11:27:36;3.03;;;2.33;;
30515;SDS011;17297;54.022;10.760;2023-05-07T11:30:01;3.17;;;2.08;;
30515;SDS011;17297;54.022;10.760;2023-05-07T11:32:28;2.95;;;2.33;;
30515;SDS011;17297;54.022;10.760;2023-05-07T11:34:55;3.05;;;2.33;;
30515;SDS011;17297;54.022;10.760;2023-05-07T11:37:22;3.88;;;2.30;;
30515;SDS011;17297;54.022;10.760;2023-05-07T11:40:03;3.78;;;3.03;;
30515;SDS011;17297;54.022;10.760;2023-05-07T11:42:31;4.93;;;2.58;;
30515;SDS011;17297;54.022;10.760;2023-05-07T11:44:57;6.50;;;2.20;;
30515;SDS011;17297;54.022;10.760;2023-05-07T11:47:23;2.70;;;2.50;;
30515;SDS011;17297;54.022;10.760;2023-05-07T11:49:53;2.92;;;1.95;;
30515;SDS011;17297;54.022;10.760;2023-05-07T11:52:20;2.90;;;2.15;;
30515;SDS011;17297;54.022;10.760;2023-05-07T11:54:51;4.70;;;2.50;;
30515;SDS011;17297;54.022;10.760;2023-05-07T11:57:17;3.00;;;2.15;;
30515;SDS011;17297;54.022;10.760;2023-05-07T11:59:46;2.50;;;2.30;;
30515;SDS011;17297;54.022;10.760;2023-05-07T12:02:15;2.50;;;2.30;;
30515;SDS011;17297;54.022;10.760;2023-05-07T12:04:40;3.80;;;2.45;;
30515;SDS011;17297;54.022;10.760;2023-05-07T12:07:12;3.38;;;2.35;;
30515;SDS011;17297;54.022;10.760;2023-05-07T12:09:40;3.80;;;2.25;;
30515;SDS011;17297;54.022;10.760;2023-05-07T12:12:06;3.50;;;2.60;;
30515;SDS011;17297;54.022;10.760;2023-05-07T12:14:31;3.78;;;2.30;;
30515;SDS011;17297;54.022;10.760;2023-05-07T12:16:57;6.00;;;3.50;;
30515;SDS011;17297;54.022;10.760;2023-05-07T12:19:24;2.53;;;2.28;;
30515;SDS011;17297;54.022;10.760;2023-05-07T12:21:50;4.10;;;2.72;;
30515;SDS011;17297;54.022;10.760;2023-05-07T12:24:15;2.60;;;1.92;;
30515;SDS011;17297;54.022;10.760;2023-05-07T12:26:41;2.95;;;1.85;;
30515;SDS011;17297;54.022;10.760;2023-05-07T12:29:06;3.20;;;2.20;;
30515;SDS011;17297;54.022;10.760;2023-05-07T12:31:32;2.25;;;2.05;;
30515;SDS011;17297;54.022;10.760;2023-05-07T12:33:58;2.10;;;1.90;;
30515;SDS011;17297;54.022;10.760;2023-05-07T12:36:23;2.67;;;2.00;;
30515;SDS011;17297;54.022;10.760;2023-05-07T12:38:49;2.05;;;1.80;;
30515;SDS011;17297;54.022;10.760;2023-05-07T12:41:15;3.15;;;1.70;;
30515;SDS011;17297;54.022;10.760;2023-05-07T12:43:43;2.47;;;1.85;;
30515;SDS011;17297;54.022;10.760;2023-05-07T12:46:10;2.00;;;1.85;;
30515;SDS011;17297;54.022;10.760;2023-05-07T12:48:38;2.53;;;2.17;;
30515;SDS011;17297;54.022;10.760;2023-05-07T12:51:10;2.10;;;1.70;;
30515;SDS011;17297;54.022;10.760;2023-05-07T12:53:39;2.22;;;2.03;;
30515;SDS011;17297;54.022;10.760;2023-05-07T12:56:06;3.25;;;2.08;;
30515;SDS011;17297;54.022;10.760;2023-05-07T12:58:35;2.38;;;1.90;;
30515;SDS011;17297;54.022;10.760;2023-05-07T13:01:03;2.10;;;1.88;;
30515;SDS011;17297;54.022;10.760;2023-05-07T13:03:31;2.53;;;1.65;;
30515;SDS011;17297;54.022;10.760;2023-05-07T13:05:58;2.28;;;2.08;;
30515;SDS011;17297;54.022;10.760;2023-05-07T13:08:26;2.33;;;2.10;;
30515;SDS011;17297;54.022;10.760;2023-05-07T13:10:53;2.35;;;2.10;;
30515;SDS011;17297;54.022;10.760;2023-05-07T13:13:19;2.42;;;2.13;;
30515;SDS011;17297;54.022;10.760;2023-05-07T13:15:45;5.63;;;2.30;;
30515;SDS011;17297;54.022;10.760;2023-05-07T13:18:11;6.50;;;2.72;;
30515;SDS011;17297;54.022;10.760;2023-05-07T13:20:36;2.70;;;2.03;;
30515;SDS011;17297;54.022;10.760;2023-05-07T13:23:02;3.97;;;2.38;;
30515;SDS011;17297;54.022;10.760;2023-05-07T13:25:29;2.97;;;2.67;;
30515;SDS011;17297;54.022;10.760;2023-05-07T13:27:56;2.50;;;2.30;;
30515;SDS011;17297;54.022;10.760;2023-05-07T13:30:22;3.65;;;2.22;;
30515;SDS011;17297;54.022;10.760;2023-05-07T13:32:47;3.38;;;2.00;;
30515;SDS011;17297;54.022;10.760;2023-05-07T13:35:14;3.42;;;2.10;;
30515;SDS011;17297;54.022;10.760;2023-05-07T13:37:39;3.08;;;2.03;;
30515;SDS011;17297;54.022;10.760;2023-05-07T13:40:05;3.20;;;2.10;;
30515;SDS011;17297;54.022;10.760;2023-05-07T13:42:31;3.28;;;1.63;;
30515;SDS011;17297;54.022;10.760;2023-05-07T13:44:56;4.15;;;2.13;;
30515;SDS011;17297;54.022;10.760;2023-05-07T13:47:22;3.70;;;1.77;;
30515;SDS011;17297;54.022;10.760;2023-05-07T13:49:47;3.85;;;2.33;;
30515;SDS011;17297;54.022;10.760;2023-05-07T13:52:15;3.08;;;1.80;;
30515;SDS011;17297;54.022;10.760;2023-05-07T13:54:41;2.67;;;2.05;;
30515;SDS011;17297;54.022;10.760;2023-05-07T13:57:06;3.33;;;2.30;;
30515;SDS011;17297;54.022;10.760;2023-05-07T13:59:31;3.10;;;2.58;;
30515;SDS011;17297;54.022;10.760;2023-05-07T14:01:57;2.60;;;1.90;;
30515;SDS011;17297;54.022;10.760;2023-05-07T14:04:22;2.53;;;2.10;;
30515;SDS011;17297;54.022;10.760;2023-05-07T14:06:47;4.82;;;2.05;;
30515;SDS011;17297;54.022;10.760;2023-05-07T14:09:12;3.15;;;2.30;;
30515;SDS011;17297;54.022;10.760;2023-05-07T14:11:38;2.53;;;2.28;;
30515;SDS011;17297;54.022;10.760;2023-05-07T14:14:04;3.22;;;1.95;;
30515;SDS011;17297;54.022;10.760;2023-05-07T14:16:30;2.75;;;2.25;;
30515;SDS011;17297;54.022;10.760;2023-05-07T14:18:55;3.75;;;2.78;;
30515;SDS011;17297;54.022;10.760;2023-05-07T14:21:21;3.63;;;2.00;;
30515;SDS011;17297;54.022;10.760;2023-05-07T14:23:46;5.50;;;3.70;;
30515;SDS011;17297;54.022;10.760;2023-05-07T14:26:12;4.53;;;3.03;;
30515;SDS011;17297;54.022;10.760;2023-05-07T14:28:37;4.55;;;3.20;;
30515;SDS011;17297;54.022;10.760;2023-05-07T14:31:04;4.70;;;3.38;;
30515;SDS011;17297;54.022;10.760;2023-05-07T14:33:31;8.10;;;3.65;;
30515;SDS011;17297;54.022;10.760;2023-05-07T14:35:56;6.10;;;3.50;;
30515;SDS011;17297;54.022;10.760;2023-05-07T14:38:22;6.63;;;3.83;;
30515;SDS011;17297;54.022;10.760;2023-05-07T14:40:47;9.35;;;4.03;;
30515;SDS011;17297;54.022;10.760;2023-05-07T14:43:12;7.40;;;4.22;;
30515;SDS011;17297;54.022;10.760;2023-05-07T14:45:38;6.45;;;4.90;;